Terminal Aerodrome Forecast
Issued by NWS

Home | Current Version | Previous Version | Text Only | Print | Product List | Glossary On
Versions: 1 2 3 4 5 6 7 8 9 10 11 12 13 14 15 16 17 18
000
FTUS45 KGJT 222000 AAA
TAFCNY
TAF AMD
KCNY 222000Z 2220/2318 29012KT P6SM FEW250
      TEMPO 2220/2224 27015G30KT
     FM230600 29007KT P6SM SKC
     FM231100 VRB03KT P6SM SKC=

USA.gov is the U.S. government's official web portal to all federal, state and local government web resources and services.